Home > Products > Valid Products > TAF

000
FTUS41 KCLE 230500
TAFFDY
TAF
KFDY 230530Z 2306/2406 VRB03KT P6SM BKN250
     FM231500 22005KT P6SM SCT250
     FM232300 15003KT P6SM SCT100 BKN250=



000
FTUS41 KCLE 230500
TAFCLE
TAF
KCLE 230530Z 2306/2412 13003KT P6SM BKN250
     FM231500 25005KT P6SM SCT250
     FM232100 36005KT P6SM SCT250
     FM240000 15005KT P6SM BKN250=



000
FTUS41 KCLE 230500
TAFTOL
TAF
KTOL 230530Z 2306/2406 VRB03KT P6SM BKN250
     FM231500 22005KT P6SM SCT250
     FM232300 16003KT P6SM SCT100 BKN250=



000
FTUS41 KCLE 230500
TAFYNG
TAF
KYNG 230530Z 2306/2406 13003KT P6SM BKN250
     FM231500 27006KT P6SM SCT250
     FM232300 VRB03KT P6SM BKN250=



000
FTUS41 KCLE 230500
TAFMFD
TAF
KMFD 230530Z 2306/2406 15003KT P6SM BKN250
     FM231500 23005KT P6SM SCT250
     FM232300 16005KT P6SM BKN250=



000
FTUS41 KCLE 230500
TAFCAK
TAF
KCAK 230530Z 2306/2406 12003KT P6SM BKN250
     FM231500 25006KT P6SM SCT250
     FM232300 VRB03KT P6SM BKN250=



000
FTUS41 KCLE 230500
TAFERI
TAF
KERI 230530Z 2306/2406 18003KT P6SM SCT250
     FM231500 23007KT P6SM SCT250
     FM231800 30007KT P6SM SCT250
     FM240000 18005KT P6SM BKN250=



000
FTUS41 KCLE 230200 AAA
TAFCLE
TAF AMD
KCLE 230252Z 2303/2406 13003KT P6SM FEW250
     FM231200 19003KT P6SM FEW250
     FM231800 26008KT P6SM SCT250=



000
FTUS41 KCLE 230100 AAA
TAFERI
TAF AMD
KERI 230130Z 2302/2324 VRB02KT P6SM FEW250
     FM230600 18003KT P6SM FEW250
     FM231500 22007KT P6SM FEW250
     FM231900 27008KT P6SM FEW250=



000
FTUS41 KCLE 230100 AAA
TAFERI
TAF AMD
KERI 230130Z 2302/2324 VRB02KT P6SM FEW250
     FM230600 18003KT P6SM FEW250
     FM231500 22007KT P6SM FEW250
     FM231900 27008KT P6SM FEW250=



000
FTUS41 KCLE 222300
TAFFDY
TAF
KFDY 222330Z 2300/2324 04002KT P6SM BKN250
     FM231500 19006KT P6SM SCT250=



000
FTUS41 KCLE 222300
TAFFDY
TAF
KFDY 222330Z 2300/2324 04002KT P6SM BKN250
     FM231500 19006KT P6SM SCT250=



000
FTUS41 KCLE 222300
TAFYNG
TAF
KYNG 222330Z 2300/2324 33009KT P6SM FEW250
     FM230100 VRB02KT P6SM FEW250
     FM231500 20006KT P6SM FEW250=



000
FTUS41 KCLE 222300
TAFYNG
TAF
KYNG 222330Z 2300/2324 33009KT P6SM FEW250
     FM230100 VRB02KT P6SM FEW250
     FM231500 20006KT P6SM FEW250=



000
FTUS41 KCLE 222300
TAFMFD
TAF
KMFD 222330Z 2300/2324 VRB02KT P6SM SCT250
     FM231500 20006KT P6SM SCT250=



000
FTUS41 KCLE 222300
TAFCAK
TAF
KCAK 222330Z 2300/2324 33008KT P6SM FEW250
     FM230100 VRB02KT P6SM FEW250
     FM231500 20006KT P6SM SCT250=



000
FTUS41 KCLE 222300
TAFTOL
TAF
KTOL 222330Z 2300/2324 04002KT P6SM BKN250
     FM231500 20006KT P6SM SCT250=



000
FTUS41 KCLE 222300
TAFCAK
TAF
KCAK 222330Z 2300/2324 33008KT P6SM FEW250
     FM230100 VRB02KT P6SM FEW250
     FM231500 20006KT P6SM SCT250=



000
FTUS41 KCLE 222300
TAFCLE
TAF
KCLE 222330Z 2300/2406 03007KT P6SM FEW250
     FM230200 10003KT P6SM FEW250
     FM231200 19003KT P6SM FEW250
     FM231800 26008KT P6SM SCT250=



000
FTUS41 KCLE 222300
TAFMFD
TAF
KMFD 222330Z 2300/2324 VRB02KT P6SM SCT250
     FM231500 20006KT P6SM SCT250=



000
FTUS41 KCLE 222300
TAFERI
TAF
KERI 222330Z 2300/2324 31008KT P6SM SKC
     FM230600 18003KT P6SM SKC
     FM231500 22007KT P6SM FEW250
     FM231900 27008KT P6SM FEW250=



000
FTUS41 KCLE 222300
TAFTOL
TAF
KTOL 222330Z 2300/2324 04002KT P6SM BKN250
     FM231500 20006KT P6SM SCT250=



000
FTUS41 KCLE 222300
TAFCLE
TAF
KCLE 222330Z 2300/2406 03007KT P6SM FEW250
     FM230200 10003KT P6SM FEW250
     FM231200 19003KT P6SM FEW250
     FM231800 26008KT P6SM SCT250=



000
FTUS41 KCLE 222300
TAFERI
TAF
KERI 222330Z 2300/2324 31008KT P6SM SKC
     FM230600 18003KT P6SM SKC
     FM231500 22007KT P6SM FEW250
     FM231900 27008KT P6SM FEW250=



000
FTUS41 KCLE 222000 AAA
TAFYNG
TAF AMD
KYNG 222012Z 2220/2318 30012G18KT P6SM FEW050
     FM230100 VRB03KT P6SM SKC
     FM231500 20006KT P6SM SKC=



000
FTUS41 KCLE 222000 AAB
TAFCAK
TAF AMD
KCAK 222012Z 2220/2318 33012G18KT P6SM FEW060
     FM230100 VRB03KT P6SM SKC
     FM231500 20006KT P6SM SKC=



000
FTUS41 KCLE 221900 AAA
TAFCAK
TAF AMD
KCAK 221930Z 2220/2318 33012G18KT P6SM SCT120
     FM230100 VRB03KT P6SM SKC
     FM231500 20006KT P6SM SKC=



000
FTUS41 KCLE 221900 AAA
TAFCLE
TAF AMD
KCLE 221930Z 2220/2324 36014G20KT P6SM SKC
     FM230000 03007KT P6SM SKC
     FM230200 10003KT P6SM SKC
     FM231200 19006KT P6SM SKC
     FM231800 26008KT P6SM SKC=



000
FTUS41 KCLE 221700
TAFMFD
TAF
KMFD 221720Z 2218/2318 33010KT P6SM SKC
     FM230000 VRB02KT P6SM SKC
     FM231500 20006KT P6SM SKC=



000
FTUS41 KCLE 221700
TAFYNG
TAF
KYNG 221720Z 2218/2318 30011G16KT P6SM SCT120
     FM230100 VRB03KT P6SM SKC
     FM231500 20006KT P6SM SKC=



000
FTUS41 KCLE 221700
TAFFDY
TAF
KFDY 221720Z 2218/2318 35008KT P6SM SKC
     FM230000 04002KT P6SM SKC
     FM231500 19006KT P6SM SKC=



000
FTUS41 KCLE 221700
TAFYNG
TAF
KYNG 221720Z 2218/2318 30011G16KT P6SM SCT120
     FM230100 VRB03KT P6SM SKC
     FM231500 20006KT P6SM SKC=



000
FTUS41 KCLE 221700
TAFCLE
TAF
KCLE 221720Z 2218/2324 34012G18KT P6SM SKC
     FM230000 03007KT P6SM SKC
     FM230200 10003KT P6SM SKC
     FM231200 19006KT P6SM SKC
     FM231800 26008KT P6SM SKC=



000
FTUS41 KCLE 221700
TAFCAK
TAF
KCAK 221720Z 2218/2318 35012G18KT P6SM SCT120
     FM230100 VRB03KT P6SM SKC
     FM231500 20006KT P6SM SKC=



000
FTUS41 KCLE 221700
TAFTOL
TAF
KTOL 221720Z 2218/2318 34009KT P6SM SKC
     FM230000 06002KT P6SM SKC
     FM231500 20006KT P6SM SKC=



000
FTUS41 KCLE 221700
TAFERI
TAF
KERI 221720Z 2218/2318 27012G18KT P6SM SKC
     FM230000 33006KT P6SM SKC
     FM230600 18004KT P6SM SKC
     FM231500 22008KT P6SM SKC=



000
FTUS41 KCLE 221700
TAFMFD
TAF
KMFD 221720Z 2218/2318 33010KT P6SM SKC
     FM230000 VRB02KT P6SM SKC
     FM231500 20006KT P6SM SKC=



000
FTUS41 KCLE 221700
TAFERI
TAF
KERI 221720Z 2218/2318 27012G18KT P6SM SKC
     FM230000 33006KT P6SM SKC
     FM230600 18004KT P6SM SKC
     FM231500 22008KT P6SM SKC=



000
FTUS41 KCLE 221700
TAFFDY
TAF
KFDY 221720Z 2218/2318 35008KT P6SM SKC
     FM230000 04002KT P6SM SKC
     FM231500 19006KT P6SM SKC=



000
FTUS41 KCLE 221700
TAFCAK
TAF
KCAK 221720Z 2218/2318 35012G18KT P6SM SCT120
     FM230100 VRB03KT P6SM SKC
     FM231500 20006KT P6SM SKC=



000
FTUS41 KCLE 221700
TAFCLE
TAF
KCLE 221720Z 2218/2324 34012G18KT P6SM SKC
     FM230000 03007KT P6SM SKC
     FM230200 10003KT P6SM SKC
     FM231200 19006KT P6SM SKC
     FM231800 26008KT P6SM SKC=



000
FTUS41 KCLE 221700
TAFTOL
TAF
KTOL 221720Z 2218/2318 34009KT P6SM SKC
     FM230000 06002KT P6SM SKC
     FM231500 20006KT P6SM SKC=



000
FTUS41 KCLE 221400 AAA
TAFCLE
TAF AMD
KCLE 221457Z 2215/2318 34011G18KT P6SM SCT070
     FM222300 VRB06KT P6SM SKC=



000
FTUS41 KCLE 221400 AAA
TAFMFD
TAF AMD
KMFD 221404Z 2214/2312 32012KT P6SM SKC
     FM221700 32010G18KT P6SM FEW040
     FM222300 VRB05KT P6SM SKC=



000
FTUS41 KCLE 221100
TAFFDY
TAF
KFDY 221129Z 2212/2312 30007KT P6SM VCSH SCT070 OVC090
     FM221300 34010KT P6SM SCT100
     FM230000 VRB04KT P6SM SKC=



000
FTUS41 KCLE 221100
TAFMFD
TAF
KMFD 221129Z 2212/2312 27008KT P6SM OVC090
     FM221500 32010KT P6SM SCT090
     FM221700 32010G18KT P6SM FEW040
     FM222300 VRB05KT P6SM SKC=



000
FTUS41 KCLE 221100
TAFTOL
TAF
KTOL 221129Z 2212/2312 32010KT P6SM SCT070
     FM221400 35010KT P6SM FEW060
     FM230100 VRB04KT P6SM SKC=



000
FTUS41 KCLE 221100
TAFCLE
TAF
KCLE 221129Z 2212/2318 25007KT P6SM VCSH SCT060 BKN080
     FM221300 32010KT P6SM SCT090
     FM221700 33012G20KT P6SM FEW040
     FM222300 VRB06KT P6SM SKC=



000
FTUS41 KCLE 221100
TAFMFD
TAF
KMFD 221129Z 2212/2312 27008KT P6SM OVC090
     FM221500 32010KT P6SM SCT090
     FM221700 32010G18KT P6SM FEW040
     FM222300 VRB05KT P6SM SKC=



000
FTUS41 KCLE 221100
TAFFDY
TAF
KFDY 221129Z 2212/2312 30007KT P6SM VCSH SCT070 OVC090
     FM221300 34010KT P6SM SCT100
     FM230000 VRB04KT P6SM SKC=



000
FTUS41 KCLE 221100
TAFYNG
TAF
KYNG 221129Z 2212/2312 24006KT P6SM VCSH BKN080
      TEMPO 2212/2213 27008KT 6SM -SHRA BKN060
     FM221500 30010KT P6SM BKN080
     FM221700 30012G20KT P6SM SCT070
     FM230100 VRB05KT P6SM SKC=



000
FTUS41 KCLE 221100
TAFERI
TAF
KERI 221129Z 2212/2312 27008KT P6SM BKN100
     FM221300 30009KT P6SM SCT100
     FM221600 30012G20KT P6SM SCT070
     FM230000 35006KT P6SM SKC
     FM230700 17004KT P6SM SKC=



000
FTUS41 KCLE 221100
TAFCAK
TAF
KCAK 221129Z 2212/2312 24007KT P6SM BKN090
     FM221400 30010KT P6SM BKN090
     FM221600 32012G20KT P6SM SCT080
     FM230000 VRB05KT P6SM SKC=



000
FTUS41 KCLE 221100
TAFCAK
TAF
KCAK 221129Z 2212/2312 24007KT P6SM BKN090
     FM221400 30010KT P6SM BKN090
     FM221600 32012G20KT P6SM SCT080
     FM230000 VRB05KT P6SM SKC=



000
FTUS41 KCLE 221100
TAFCLE
TAF
KCLE 221129Z 2212/2318 25007KT P6SM VCSH SCT060 BKN080
     FM221300 32010KT P6SM SCT090
     FM221700 33012G20KT P6SM FEW040
     FM222300 VRB06KT P6SM SKC=



000
FTUS41 KCLE 221100
TAFYNG
TAF
KYNG 221129Z 2212/2312 24006KT P6SM VCSH BKN080
      TEMPO 2212/2213 27008KT 6SM -SHRA BKN060
     FM221500 30010KT P6SM BKN080
     FM221700 30012G20KT P6SM SCT070
     FM230100 VRB05KT P6SM SKC=



000
FTUS41 KCLE 221100
TAFERI
TAF
KERI 221129Z 2212/2312 27008KT P6SM BKN100
     FM221300 30009KT P6SM SCT100
     FM221600 30012G20KT P6SM SCT070
     FM230000 35006KT P6SM SKC
     FM230700 17004KT P6SM SKC=



000
FTUS41 KCLE 221100
TAFTOL
TAF
KTOL 221129Z 2212/2312 32010KT P6SM SCT070
     FM221400 35010KT P6SM FEW060
     FM230100 VRB04KT P6SM SKC=



000
FTUS41 KCLE 221000 AAA
TAFFDY
TAF AMD
KFDY 221048Z 2211/2306 28010KT P6SM VCSH SCT070 OVC090
     FM221300 34010KT P6SM SCT090
     FM222300 VRB05KT P6SM SKC=



000
FTUS41 KCLE 221000 AAA
TAFFDY
TAF AMD
KFDY 221048Z 2211/2306 28010KT P6SM VCSH SCT070 OVC090
     FM221300 34010KT P6SM SCT090
     FM222300 VRB05KT P6SM SKC=



000
FTUS41 KCLE 221000 AAA
TAFYNG
TAF AMD
KYNG 221036Z 2211/2306 24006KT P6SM VCSH BKN080
      TEMPO 2211/2213 -SHRA BKN060
     FM221600 30012G20KT P6SM SCT050
     FM222300 VRB05KT P6SM SKC=



000
FTUS41 KCLE 220900 AAA
TAFCLE
TAF AMD
KCLE 220910Z 2209/2312 21006KT P6SM OVC080
     FM221000 23008KT P6SM VCSH BKN070 OVC100
      TEMPO 2210/2212 -SHRA BKN060
     FM221300 32010KT P6SM SCT090
     FM221700 33012G20KT P6SM FEW040
     FM222300 VRB06KT P6SM SKC=



000
FTUS41 KCLE 220800 AAA
TAFTOL
TAF AMD
KTOL 220818Z 2208/2306 25007KT P6SM VCSH SCT070 BKN100
      TEMPO 2209/2210 -SHRA BKN070
     FM221300 30008KT P6SM SCT090
     FM221400 35010KT P6SM FEW040
     FM230000 VRB04KT P6SM SKC=



000
FTUS41 KCLE 220500
TAFTOL
TAF
KTOL 220537Z 2206/2306 25006KT P6SM SCT070 BKN100
     FM221100 30008KT P6SM SCT090
     FM221400 35010KT P6SM FEW040
     FM230000 VRB04KT P6SM SKC=



000
FTUS41 KCLE 220500
TAFTOL
TAF
KTOL 220537Z 2206/2306 25006KT P6SM SCT070 BKN100
     FM221100 30008KT P6SM SCT090
     FM221400 35010KT P6SM FEW040
     FM230000 VRB04KT P6SM SKC=



000
FTUS41 KCLE 220500
TAFMFD
TAF
KMFD 220537Z 2206/2306 24007KT P6SM SCT090
     FM220900 25008KT P6SM SCT050 OVC080
     FM221400 31010KT P6SM SCT090
     FM221800 32010G18KT P6SM FEW040
     FM222300 VRB05KT P6SM SKC=



000
FTUS41 KCLE 220500
TAFFDY
TAF
KFDY 220537Z 2206/2306 24006KT P6SM SCT090
     FM220900 26008KT P6SM SCT050 OVC090
     FM221300 34010KT P6SM SCT090
     FM222300 VRB05KT P6SM SKC=



000
FTUS41 KCLE 220500
TAFCAK
TAF
KCAK 220537Z 2206/2306 24007KT P6SM SCT100
     FM221000 28008KT P6SM VCSH BKN080
     FM221600 30012G20KT P6SM SCT050
     FM222300 VRB05KT P6SM SKC=



000
FTUS41 KCLE 220500
TAFYNG
TAF
KYNG 220537Z 2206/2306 24007KT P6SM SCT100
     FM221000 26008KT P6SM VCSH BKN080
     FM221500 30012G20KT P6SM SCT050
     FM222300 VRB05KT P6SM SKC=



000
FTUS41 KCLE 220500
TAFCLE
TAF
KCLE 220537Z 2206/2312 24008KT P6SM BKN100
     FM221000 26008KT P6SM VCSH BKN070 OVC100
     FM221300 32010KT P6SM SCT090
     FM221700 33012G20KT P6SM FEW040
     FM222300 VRB06KT P6SM SKC=



000
FTUS41 KCLE 220500
TAFERI
TAF
KERI 220537Z 2206/2306 24007KT P6SM SCT060 BKN100
     FM221300 28007KT P6SM SCT100
     FM221700 30012G20KT P6SM SCT050
     FM230000 VRB05KT P6SM SKC=



000
FTUS41 KCLE 220500
TAFCAK
TAF
KCAK 220537Z 2206/2306 24007KT P6SM SCT100
     FM221000 28008KT P6SM VCSH BKN080
     FM221600 30012G20KT P6SM SCT050
     FM222300 VRB05KT P6SM SKC=



000
FTUS41 KCLE 220500
TAFCLE
TAF
KCLE 220537Z 2206/2312 24008KT P6SM BKN100
     FM221000 26008KT P6SM VCSH BKN070 OVC100
     FM221300 32010KT P6SM SCT090
     FM221700 33012G20KT P6SM FEW040
     FM222300 VRB06KT P6SM SKC=



000
FTUS41 KCLE 220500
TAFERI
TAF
KERI 220537Z 2206/2306 24007KT P6SM SCT060 BKN100
     FM221300 28007KT P6SM SCT100
     FM221700 30012G20KT P6SM SCT050
     FM230000 VRB05KT P6SM SKC=



000
FTUS41 KCLE 220500
TAFYNG
TAF
KYNG 220537Z 2206/2306 24007KT P6SM SCT100
     FM221000 26008KT P6SM VCSH BKN080
     FM221500 30012G20KT P6SM SCT050
     FM222300 VRB05KT P6SM SKC=



000
FTUS41 KCLE 220500
TAFMFD
TAF
KMFD 220537Z 2206/2306 24007KT P6SM SCT090
     FM220900 25008KT P6SM SCT050 OVC080
     FM221400 31010KT P6SM SCT090
     FM221800 32010G18KT P6SM FEW040
     FM222300 VRB05KT P6SM SKC=



000
FTUS41 KCLE 220500
TAFFDY
TAF
KFDY 220537Z 2206/2306 24006KT P6SM SCT090
     FM220900 26008KT P6SM SCT050 OVC090
     FM221300 34010KT P6SM SCT090
     FM222300 VRB05KT P6SM SKC=



000
FTUS41 KCLE 220200 AAA
TAFCLE
TAF AMD
KCLE 220256Z 2203/2306 22006KT P6SM FEW050 SCT090
     FM221000 26008KT P6SM VCSH BKN050 OVC090
     FM221200 32010KT P6SM BKN090
     FM221700 33012G20KT P6SM FEW040
     FM222300 35008KT P6SM FEW250=



000
FTUS41 KCLE 212300
TAFYNG
TAF
KYNG 212329Z 2200/2224 28008KT P6SM SCT050 BKN090
     FM220200 25005KT P6SM FEW050 SCT090
     FM221100 27008KT P6SM VCSH BKN050 OVC090
     FM221300 32010KT P6SM BKN090
     FM221700 32012G20KT P6SM SCT040=



000
FTUS41 KCLE 212300
TAFCAK
TAF
KCAK 212329Z 2200/2224 27008KT P6SM FEW050 SCT090
     FM221100 29010KT P6SM VCSH BKN050 OVC090
     FM221300 32010KT P6SM BKN090
     FM221700 32012G20KT P6SM SCT040=



000
FTUS41 KCLE 212300
TAFFDY
TAF
KFDY 212329Z 2200/2224 27010KT P6SM FEW050 SCT090
     FM220900 26008KT P6SM VCSH BKN050 OVC090
     FM221100 33010KT P6SM BKN090
     FM221800 34012G20KT P6SM FEW040=



000
FTUS41 KCLE 212300
TAFCLE
TAF
KCLE 212329Z 2200/2306 28008KT P6SM FEW050 SCT090
     FM221000 26008KT P6SM VCSH BKN050 OVC090
     FM221200 32010KT P6SM BKN090
     FM221700 33012G20KT P6SM FEW040
     FM222300 35008KT P6SM FEW250=



000
FTUS41 KCLE 212300
TAFTOL
TAF
KTOL 212329Z 2200/2224 26010KT P6SM FEW050 SCT090
     FM220800 26010KT P6SM VCSH BKN050 OVC090
     FM221000 33010KT P6SM BKN090
     FM221700 33012G20KT P6SM FEW040=



000
FTUS41 KCLE 212300
TAFMFD
TAF
KMFD 212329Z 2200/2224 27008KT P6SM FEW050 SCT090
     FM220930 26008KT P6SM VCSH BKN040 OVC090
     FM221200 33010KT P6SM BKN090
     FM221900 32012G20KT P6SM FEW040=



000
FTUS41 KCLE 212300
TAFERI
TAF
KERI 212329Z 2200/2224 24012G20KT P6SM SCT050 OVC100
     FM220300 24010KT P6SM FEW050 SCT100
     FM221000 25008KT P6SM VCSH BKN050 OVC090
     FM221200 30012KT P6SM BKN090
     FM221700 30012G20KT P6SM FEW040=



000
FTUS41 KCLE 212300
TAFYNG
TAF
KYNG 212329Z 2200/2224 28008KT P6SM SCT050 BKN090
     FM220200 25005KT P6SM FEW050 SCT090
     FM221100 27008KT P6SM VCSH BKN050 OVC090
     FM221300 32010KT P6SM BKN090
     FM221700 32012G20KT P6SM SCT040=



000
FTUS41 KCLE 212300
TAFCAK
TAF
KCAK 212329Z 2200/2224 27008KT P6SM FEW050 SCT090
     FM221100 29010KT P6SM VCSH BKN050 OVC090
     FM221300 32010KT P6SM BKN090
     FM221700 32012G20KT P6SM SCT040=



000
FTUS41 KCLE 212300
TAFFDY
TAF
KFDY 212329Z 2200/2224 27010KT P6SM FEW050 SCT090
     FM220900 26008KT P6SM VCSH BKN050 OVC090
     FM221100 33010KT P6SM BKN090
     FM221800 34012G20KT P6SM FEW040=



000
FTUS41 KCLE 212300
TAFMFD
TAF
KMFD 212329Z 2200/2224 27008KT P6SM FEW050 SCT090
     FM220930 26008KT P6SM VCSH BKN040 OVC090
     FM221200 33010KT P6SM BKN090
     FM221900 32012G20KT P6SM FEW040=



000
FTUS41 KCLE 212300
TAFERI
TAF
KERI 212329Z 2200/2224 24012G20KT P6SM SCT050 OVC100
     FM220300 24010KT P6SM FEW050 SCT100
     FM221000 25008KT P6SM VCSH BKN050 OVC090
     FM221200 30012KT P6SM BKN090
     FM221700 30012G20KT P6SM FEW040=



000
FTUS41 KCLE 212300
TAFTOL
TAF
KTOL 212329Z 2200/2224 26010KT P6SM FEW050 SCT090
     FM220800 26010KT P6SM VCSH BKN050 OVC090
     FM221000 33010KT P6SM BKN090
     FM221700 33012G20KT P6SM FEW040=



000
FTUS41 KCLE 212300
TAFCLE
TAF
KCLE 212329Z 2200/2306 28008KT P6SM FEW050 SCT090
     FM221000 26008KT P6SM VCSH BKN050 OVC090
     FM221200 32010KT P6SM BKN090
     FM221700 33012G20KT P6SM FEW040
     FM222300 35008KT P6SM FEW250=



000
FTUS41 KCLE 212000 AAB
TAFCLE
TAF AMD
KCLE 212054Z 2121/2224 30010KT P6SM SCT040 OVC080
     FM220100 24008KT P6SM SCT080 BKN150
     FM221000 30008KT P6SM VCSH BKN050
     FM221500 31011KT P6SM SCT050=



000
FTUS41 KCLE 212000 AAB
TAFCLE
TAF AMD
KCLE 212054Z 2121/2224 30010KT P6SM SCT040 OVC080
     FM220100 24008KT P6SM SCT080 BKN150
     FM221000 30008KT P6SM VCSH BKN050
     FM221500 31011KT P6SM SCT050=



000
FTUS41 KCLE 211800 AAA
TAFCLE
TAF AMD
KCLE 211857Z 2119/2224 32009KT P6SM SCT050 OVC100
     FM220100 24007KT P6SM SCT100
     FM221000 30008KT P6SM VCSH BKN050
     FM221500 31011KT P6SM SCT050=



000
FTUS41 KCLE 211700
TAFERI
TAF
KERI 211730Z 2118/2218 29010KT P6SM BKN090
     FM220200 23006KT P6SM SCT100
     FM220900 27009KT P6SM VCSH BKN050
     FM221400 30010KT P6SM SCT050=



000
FTUS41 KCLE 211700
TAFCLE
TAF
KCLE 211730Z 2118/2224 32009KT P6SM BKN050 OVC100
     FM220100 24007KT P6SM SCT100
     FM221000 30008KT P6SM VCSH BKN050
     FM221500 31011KT P6SM SCT050=



000
FTUS41 KCLE 211700
TAFMFD
TAF
KMFD 211730Z 2118/2218 29010KT P6SM BKN040 OVC100
     FM212300 26006KT P6SM FEW060
     FM221000 26006KT P6SM VCSH BKN050
     FM221400 32010KT P6SM SCT050=



000
FTUS41 KCLE 211700
TAFYNG
TAF
KYNG 211730Z 2118/2218 33008KT P6SM BKN050 OVC100
     FM220300 24005KT P6SM SCT100
     FM221100 25006KT P6SM VCSH BKN050
     FM221500 29010KT P6SM BKN050=



000
FTUS41 KCLE 211700
TAFTOL
TAF
KTOL 211730Z 2118/2218 28011KT P6SM SCT050 BKN110
     FM212300 26007KT P6SM FEW060
     FM220900 27008KT P6SM VCSH BKN050
     FM221300 32011KT P6SM SCT050=



000
FTUS41 KCLE 211700
TAFCAK
TAF
KCAK 211730Z 2118/2218 33008KT P6SM BKN045 OVC100
     FM220300 24006KT P6SM SCT100
     FM221100 25007KT P6SM VCSH BKN050
     FM221500 29010KT P6SM SCT050=



000
FTUS41 KCLE 211700
TAFFDY
TAF
KFDY 211730Z 2118/2218 29010KT P6SM BKN040 OVC100
     FM212300 26007KT P6SM FEW060
     FM221000 26008KT P6SM VCSH BKN050
     FM221300 33010KT P6SM SCT050=



000
FTUS41 KCLE 211400 AAA
TAFCLE
TAF AMD
KCLE 211453Z 2115/2218 34008KT P6SM SCT050 OVC100
     FM220100 24007KT P6SM SCT120
     FM221000 30008KT P6SM BKN060=



000
FTUS41 KCLE 211400 AAA
TAFERI
TAF AMD
KERI 211419Z 2114/2212 30008KT P6SM BKN080
     FM212200 26006KT P6SM SCT120
     FM220900 29006KT P6SM BKN060=



000
FTUS41 KCLE 211100
TAFMFD
TAF
KMFD 211136Z 2112/2212 02005KT P6SM BKN045 OVC060
     FM211500 33008KT P6SM OVC050
     FM212300 25005KT P6SM SCT120=



000
FTUS41 KCLE 211100
TAFTOL
TAF
KTOL 211136Z 2112/2212 32005KT P6SM SCT060 OVC100
     FM211400 28010KT P6SM SCT060 BKN120
     FM212300 26007KT P6SM FEW060=



000
FTUS41 KCLE 211100
TAFFDY
TAF
KFDY 211136Z 2112/2212 36006KT P6SM BKN045 OVC090
     FM211400 30010KT P6SM OVC060
     FM212300 25005KT P6SM SCT120=



000
FTUS41 KCLE 211100
TAFYNG
TAF
KYNG 211136Z 2112/2212 07005KT P6SM OVC060
     FM211500 32008KT P6SM OVC080
     FM220200 26005KT P6SM SCT070=



000
FTUS41 KCLE 211100
TAFERI
TAF
KERI 211136Z 2112/2212 VRB04KT P6SM OVC090
     FM211400 29008KT P6SM OVC080
     FM212200 23006KT P6SM SCT200
     FM220900 29006KT P6SM BKN060=



000
FTUS41 KCLE 211100
TAFTOL
TAF
KTOL 211136Z 2112/2212 32005KT P6SM SCT060 OVC100
     FM211400 28010KT P6SM SCT060 BKN120
     FM212300 26007KT P6SM FEW060=



000
FTUS41 KCLE 211100
TAFCLE
TAF
KCLE 211136Z 2112/2218 02005KT P6SM BKN060 OVC080
     FM211400 32008KT P6SM SCT060 BKN100
     FM220100 24007KT P6SM SCT120
     FM221000 30008KT P6SM BKN060=



000
FTUS41 KCLE 211100
TAFFDY
TAF
KFDY 211136Z 2112/2212 36006KT P6SM BKN045 OVC090
     FM211400 30010KT P6SM OVC060
     FM212300 25005KT P6SM SCT120=



000
FTUS41 KCLE 211100
TAFCAK
TAF
KCAK 211136Z 2112/2212 05005KT P6SM OVC060
     FM211600 33007KT P6SM OVC070
     FM220300 26006KT P6SM SCT120=



000
FTUS41 KCLE 211100
TAFERI
TAF
KERI 211136Z 2112/2212 VRB04KT P6SM OVC090
     FM211400 29008KT P6SM OVC080
     FM212200 23006KT P6SM SCT200
     FM220900 29006KT P6SM BKN060=



000
FTUS41 KCLE 211100
TAFYNG
TAF
KYNG 211136Z 2112/2212 07005KT P6SM OVC060
     FM211500 32008KT P6SM OVC080
     FM220200 26005KT P6SM SCT070=



000
FTUS41 KCLE 211100
TAFCAK
TAF
KCAK 211136Z 2112/2212 05005KT P6SM OVC060
     FM211600 33007KT P6SM OVC070
     FM220300 26006KT P6SM SCT120=



000
FTUS41 KCLE 211100
TAFMFD
TAF
KMFD 211136Z 2112/2212 02005KT P6SM BKN045 OVC060
     FM211500 33008KT P6SM OVC050
     FM212300 25005KT P6SM SCT120=



000
FTUS41 KCLE 211100
TAFCLE
TAF
KCLE 211136Z 2112/2218 02005KT P6SM BKN060 OVC080
     FM211400 32008KT P6SM SCT060 BKN100
     FM220100 24007KT P6SM SCT120
     FM221000 30008KT P6SM BKN060=



000
FTUS41 KCLE 210800 AAA
TAFCLE
TAF AMD
KCLE 210857Z 2109/2212 04004KT P6SM OVC060
     FM211400 30007KT P6SM OVC080
     FM220100 24007KT P6SM SCT120=



000
FTUS41 KCLE 210700 AAA
TAFYNG
TAF AMD
KYNG 210707Z 2107/2206 VRB03KT P6SM -RA SCT050 OVC080
     FM210900 VRB04KT P6SM OVC060
     FM211500 32008KT P6SM OVC080
     FM220000 26005KT P6SM SCT070=



000
FTUS41 KCLE 210500
TAFCAK
TAF
KCAK 210539Z 2106/2206 VRB04KT P6SM -SHRA SCT045 OVC060
     FM210900 04004KT P6SM OVC050
     FM211600 34007KT P6SM OVC070
     FM220100 27006KT P6SM SCT080 BKN120=



000
FTUS41 KCLE 210500
TAFCAK
TAF
KCAK 210539Z 2106/2206 VRB04KT P6SM -SHRA SCT045 OVC060
     FM210900 04004KT P6SM OVC050
     FM211600 34007KT P6SM OVC070
     FM220100 27006KT P6SM SCT080 BKN120=



000
FTUS41 KCLE 210500
TAFCLE
TAF
KCLE 210539Z 2106/2212 VRB03KT P6SM -SHRA SCT050 OVC070
     FM210800 VRB03KT P6SM OVC060
     FM211400 30007KT P6SM OVC080
     FM220100 24007KT P6SM SCT120=



000
FTUS41 KCLE 210500
TAFMFD
TAF
KMFD 210539Z 2106/2206 VRB04KT P6SM -SHRA SCT045 OVC060
     FM210700 VRB04KT P6SM OVC050
     FM211500 33006KT P6SM OVC060
     FM220000 24005KT P6SM SCT120=



000
FTUS41 KCLE 210500
TAFFDY
TAF
KFDY 210539Z 2106/2206 VRB04KT P6SM OVC060
     FM211400 30010KT P6SM OVC060
     FM212300 25005KT P6SM SCT120=



000
FTUS41 KCLE 210500
TAFTOL
TAF
KTOL 210539Z 2106/2206 34004KT P6SM OVC050
     FM211400 31006KT P6SM SCT060 OVC120
     FM212000 27010KT P6SM SCT120=



000
FTUS41 KCLE 210500
TAFERI
TAF
KERI 210539Z 2106/2206 VRB03KT P6SM OVC090
     FM211400 27008KT P6SM OVC080
     FM220200 22008KT P6SM SCT060=



000
FTUS41 KCLE 210500
TAFYNG
TAF
KYNG 210539Z 2106/2206 VRB03KT P6SM OVC080
     FM211500 32008KT P6SM OVC080
     FM220000 26005KT P6SM SCT070=



000
FTUS41 KCLE 210200 AAA
TAFCLE
TAF AMD
KCLE 210256Z 2103/2206 VRB03KT P6SM OVC120
     FM211300 33006KT P6SM OVC120
     FM220000 24007KT P6SM SCT250=



000
FTUS41 KCLE 202300
TAFERI
TAF
KERI 202337Z 2100/2124 31008KT P6SM FEW250
     FM210200 VRB03KT P6SM BKN120 OVC250
     FM211400 26006KT P6SM OVC250=



000
FTUS41 KCLE 202300
TAFCAK
TAF
KCAK 202337Z 2100/2124 01008KT P6SM SCT035 OVC200
     FM210100 VRB04KT P6SM SCT040 OVC120
     FM210600 03004KT P6SM VCSH OVC050
     FM211000 03004KT P6SM OVC050
     FM211600 35006KT P6SM SCT050 OVC100
     FM212300 29008KT P6SM OVC100=



000
FTUS41 KCLE 202300
TAFFDY
TAF
KFDY 202337Z 2100/2124 07008KT P6SM BKN120
     FM210200 05006KT 6SM -SHRA OVC050
     FM210600 05005KT P6SM OVC050
     FM211000 36008KT P6SM OVC050
     FM212200 28010KT P6SM OVC120=



000
FTUS41 KCLE 202300
TAFTOL
TAF
KTOL 202337Z 2100/2124 07007KT P6SM BKN120
     FM210200 VRB03KT P6SM VCSH SCT050 OVC100
     FM210700 VRB03KT P6SM OVC100
     FM211300 31006KT P6SM OVC100
     FM211800 27010KT P6SM OVC120=



000
FTUS41 KCLE 202300
TAFMFD
TAF
KMFD 202337Z 2100/2124 02008KT P6SM SCT120
     FM210400 VRB03KT P6SM VCSH SCT050 OVC100
     FM210900 03004KT P6SM OVC050
     FM211700 33008KT P6SM OVC120=



000
FTUS41 KCLE 202300
TAFYNG
TAF
KYNG 202337Z 2100/2124 35008KT P6SM SCT035 OVC250
     FM210300 VRB03KT P6SM OVC050
     FM211500 32008KT P6SM OVC120=



000
FTUS41 KCLE 202300
TAFCLE
TAF
KCLE 202337Z 2100/2206 03008KT P6SM SCT150 BKN250
     FM210100 VRB03KT P6SM FEW050 OVC120
     FM211300 33006KT P6SM OVC120
     FM220000 24007KT P6SM SCT250=



000
FTUS41 KCLE 202300
TAFCLE
TAF
KCLE 202337Z 2100/2206 03008KT P6SM SCT150 BKN250
     FM210100 VRB03KT P6SM FEW050 OVC120
     FM211300 33006KT P6SM OVC120
     FM220000 24007KT P6SM SCT250=



000
FTUS41 KCLE 202000 AAA
TAFCLE
TAF AMD
KCLE 202055Z 2021/2124 03008KT P6SM SCT035 OVC250
     FM210100 VRB03KT P6SM FEW050 OVC120
     FM211300 32008KT P6SM SCT050 OVC100=



000
FTUS41 KCLE 202000 AAA
TAFCLE
TAF AMD
KCLE 202055Z 2021/2124 03008KT P6SM SCT035 OVC250
     FM210100 VRB03KT P6SM FEW050 OVC120
     FM211300 32008KT P6SM SCT050 OVC100=



000
FTUS41 KCLE 201700
TAFCLE
TAF
KCLE 201726Z 2018/2124 01008KT P6SM SCT035 OVC250
     FM210100 VRB03KT P6SM FEW050 OVC120
     FM211300 32008KT P6SM SCT050 OVC100=



000
FTUS41 KCLE 201700
TAFCAK
TAF
KCAK 201726Z 2018/2118 01008KT P6SM SCT025 OVC250
      TEMPO 2018/2020 BKN025
     FM210100 VRB04KT P6SM SCT040 OVC120
     FM210800 03004KT P6SM OVC035
     FM211600 35006KT P6SM OVC050=



000
FTUS41 KCLE 201700
TAFFDY
TAF
KFDY 201726Z 2018/2118 05008KT P6SM SCT040 OVC120
     FM210500 VRB03KT P6SM VCSH OVC050
     FM211000 36008KT P6SM OVC035
     FM211600 32008KT P6SM OVC050=



000
FTUS41 KCLE 201700
TAFTOL
TAF
KTOL 201726Z 2018/2118 07010KT P6SM SCT120 OVC250
     FM210200 VRB03KT P6SM SCT070 OVC100
     FM211300 30008KT P6SM BKN050 OVC100=



000
FTUS41 KCLE 201700
TAFERI
TAF
KERI 201726Z 2018/2118 31008KT P6SM SCT035 OVC250
     FM210100 VRB03KT P6SM BKN120 OVC200
     FM211400 25005KT P6SM SCT050 OVC120
     FM211600 30008KT P6SM FEW050 BKN120=



000
FTUS41 KCLE 201700
TAFYNG
TAF
KYNG 201726Z 2018/2118 35008KT P6SM SCT025 OVC250
      TEMPO 2018/2020 BKN025
     FM210900 VRB03KT P6SM OVC035
     FM211600 32008KT P6SM OVC035=



000
FTUS41 KCLE 201700
TAFMFD
TAF
KMFD 201726Z 2018/2118 02008KT P6SM SCT035 OVC120
      TEMPO 2018/2019 BKN025
     FM210200 VRB03KT P6SM SCT050 OVC100
     FM210700 01004KT P6SM VCSH OVC050
     FM211200 36008KT P6SM OVC035
     FM211700 33008KT P6SM OVC050=



000
FTUS41 KCLE 201700
TAFCLE
TAF
KCLE 201726Z 2018/2124 01008KT P6SM SCT035 OVC250
     FM210100 VRB03KT P6SM FEW050 OVC120
     FM211300 32008KT P6SM SCT050 OVC100=



000
FTUS41 KCLE 201700
TAFERI
TAF
KERI 201726Z 2018/2118 31008KT P6SM SCT035 OVC250
     FM210100 VRB03KT P6SM BKN120 OVC200
     FM211400 25005KT P6SM SCT050 OVC120
     FM211600 30008KT P6SM FEW050 BKN120=



000
FTUS41 KCLE 201700
TAFCAK
TAF
KCAK 201726Z 2018/2118 01008KT P6SM SCT025 OVC250
      TEMPO 2018/2020 BKN025
     FM210100 VRB04KT P6SM SCT040 OVC120
     FM210800 03004KT P6SM OVC035
     FM211600 35006KT P6SM OVC050=



000
FTUS41 KCLE 201700
TAFTOL
TAF
KTOL 201726Z 2018/2118 07010KT P6SM SCT120 OVC250
     FM210200 VRB03KT P6SM SCT070 OVC100
     FM211300 30008KT P6SM BKN050 OVC100=



000
FTUS41 KCLE 201700
TAFYNG
TAF
KYNG 201726Z 2018/2118 35008KT P6SM SCT025 OVC250
      TEMPO 2018/2020 BKN025
     FM210900 VRB03KT P6SM OVC035
     FM211600 32008KT P6SM OVC035=



000
FTUS41 KCLE 201700
TAFFDY
TAF
KFDY 201726Z 2018/2118 05008KT P6SM SCT040 OVC120
     FM210500 VRB03KT P6SM VCSH OVC050
     FM211000 36008KT P6SM OVC035
     FM211600 32008KT P6SM OVC050=



000
FTUS41 KCLE 201700
TAFMFD
TAF
KMFD 201726Z 2018/2118 02008KT P6SM SCT035 OVC120
      TEMPO 2018/2019 BKN025
     FM210200 VRB03KT P6SM SCT050 OVC100
     FM210700 01004KT P6SM VCSH OVC050
     FM211200 36008KT P6SM OVC035
     FM211700 33008KT P6SM OVC050=



000
FTUS41 KCLE 201600 AAA
TAFERI
TAF AMD
KERI 201612Z 2016/2112 31008KT P6SM BKN025 OVC035
     FM201700 33008KT P6SM SCT035 BKN250
     FM210200 VRB03KT P6SM BKN100=



000
FTUS41 KCLE 201600 AAA
TAFYNG
TAF AMD
KYNG 201611Z 2016/2112 35010KT P6SM BKN025 OVC035
     FM201800 32008KT P6SM SCT035 BKN250
     FM202300 35007KT P6SM OVC100
     FM210100 VRB02KT P6SM OVC100=



000
FTUS41 KCLE 201500 AAA
TAFFDY
TAF AMD
KFDY 201521Z 2015/2112 06008KT P6SM SCT025 OVC250
      TEMPO 2015/2018 BKN025
     FM201800 03007KT P6SM OVC100
     FM210100 05005KT 6SM -SHRA BR OVC050
     FM210600 VRB03KT P6SM OVC050=



000
FTUS41 KCLE 201500 AAA
TAFFDY
TAF AMD
KFDY 201521Z 2015/2112 06008KT P6SM SCT025 OVC250
      TEMPO 2015/2018 BKN025
     FM201800 03007KT P6SM OVC100
     FM210100 05005KT 6SM -SHRA BR OVC050
     FM210600 VRB03KT P6SM OVC050=



000
FTUS41 KCLE 201400 AAA
TAFCLE
TAF AMD
KCLE 201450Z 2015/2118 35010KT P6SM OVC025
     FM201700 35006KT P6SM SCT250
     FM202200 35008KT P6SM OVC100
     FM210500 VRB03KT P6SM OVC070
     FM211500 30007KT P6SM BKN100=



000
FTUS41 KCLE 201400 AAA
TAFMFD
TAF AMD
KMFD 201439Z 2015/2112 34010KT P6SM OVC025
     FM201700 36007KT P6SM SCT025 OVC250
     FM202100 35007KT P6SM OVC100
     FM210600 02004KT P6SM -SHRA OVC050
     FM210800 VRB03KT P6SM OVC050=



000
FTUS41 KCLE 201100
TAFCAK
TAF
KCAK 201125Z 2012/2112 31010KT P6SM OVC025
     FM201700 35007KT P6SM BKN250
     FM202200 35007KT P6SM OVC100
     FM210500 VRB03KT P6SM OVC070
     FM210800 VRB03KT P6SM OVC070
      TEMPO 2108/2110 -SHRA=



000
FTUS41 KCLE 201100
TAFCLE
TAF
KCLE 201125Z 2012/2118 35012KT P6SM OVC025
      TEMPO 2012/2015 SCT025 OVC035
     FM201500 35006KT P6SM SCT250
     FM202200 35008KT P6SM OVC100
     FM210500 VRB03KT P6SM OVC070
     FM211500 30007KT P6SM BKN100=



000
FTUS41 KCLE 201100
TAFMFD
TAF
KMFD 201125Z 2012/2112 30009KT P6SM OVC035
      TEMPO 2012/2014 OVC025
     FM201600 36007KT P6SM OVC250
     FM202100 35007KT P6SM OVC100
     FM210600 02004KT P6SM -SHRA OVC050
     FM210800 VRB03KT P6SM OVC050=



000
FTUS41 KCLE 201100
TAFYNG
TAF
KYNG 201125Z 2012/2112 35012KT P6SM OVC025
      TEMPO 2012/2016 SCT025 OVC035
     FM201600 35010KT P6SM OVC035
     FM201800 32008KT P6SM BKN250
     FM202300 35007KT P6SM OVC100
     FM210100 VRB02KT P6SM OVC100=



000
FTUS41 KCLE 201100
TAFERI
TAF
KERI 201125Z 2012/2112 35006KT P6SM OVC035
      TEMPO 2012/2016 OVC025
     FM201600 35006KT P6SM OVC035
     FM201700 33007KT P6SM SCT250
     FM210200 VRB03KT P6SM BKN100
     FM211100 VRB03KT P6SM OVC250=



000
FTUS41 KCLE 201100
TAFCAK
TAF
KCAK 201125Z 2012/2112 31010KT P6SM OVC025
     FM201700 35007KT P6SM BKN250
     FM202200 35007KT P6SM OVC100
     FM210500 VRB03KT P6SM OVC070
     FM210800 VRB03KT P6SM OVC070
      TEMPO 2108/2110 -SHRA=



000
FTUS41 KCLE 201100
TAFTOL
TAF
KTOL 201125Z 2012/2112 02007KT P6SM BKN250
     FM202000 VRB03KT P6SM OVC100
     FM210400 VRB03KT P6SM OVC070=



000
FTUS41 KCLE 201100
TAFFDY
TAF
KFDY 201125Z 2012/2112 31009KT P6SM OVC250
     FM201800 03007KT P6SM OVC100
     FM210100 05005KT 6SM -SHRA BR OVC050
     FM210600 VRB03KT P6SM OVC050=



000
FTUS41 KCLE 201100
TAFYNG
TAF
KYNG 201125Z 2012/2112 35012KT P6SM OVC025
      TEMPO 2012/2016 SCT025 OVC035
     FM201600 35010KT P6SM OVC035
     FM201800 32008KT P6SM BKN250
     FM202300 35007KT P6SM OVC100
     FM210100 VRB02KT P6SM OVC100=



000
FTUS41 KCLE 201100
TAFFDY
TAF
KFDY 201125Z 2012/2112 31009KT P6SM OVC250
     FM201800 03007KT P6SM OVC100
     FM210100 05005KT 6SM -SHRA BR OVC050
     FM210600 VRB03KT P6SM OVC050=



000
FTUS41 KCLE 201100
TAFMFD
TAF
KMFD 201125Z 2012/2112 30009KT P6SM OVC035
      TEMPO 2012/2014 OVC025
     FM201600 36007KT P6SM OVC250
     FM202100 35007KT P6SM OVC100
     FM210600 02004KT P6SM -SHRA OVC050
     FM210800 VRB03KT P6SM OVC050=



000
FTUS41 KCLE 201100
TAFERI
TAF
KERI 201125Z 2012/2112 35006KT P6SM OVC035
      TEMPO 2012/2016 OVC025
     FM201600 35006KT P6SM OVC035
     FM201700 33007KT P6SM SCT250
     FM210200 VRB03KT P6SM BKN100
     FM211100 VRB03KT P6SM OVC250=



000
FTUS41 KCLE 201100
TAFCLE
TAF
KCLE 201125Z 2012/2118 35012KT P6SM OVC025
      TEMPO 2012/2015 SCT025 OVC035
     FM201500 35006KT P6SM SCT250
     FM202200 35008KT P6SM OVC100
     FM210500 VRB03KT P6SM OVC070
     FM211500 30007KT P6SM BKN100=



000
FTUS41 KCLE 201100
TAFTOL
TAF
KTOL 201125Z 2012/2112 02007KT P6SM BKN250
     FM202000 VRB03KT P6SM OVC100
     FM210400 VRB03KT P6SM OVC070=



000
FTUS41 KCLE 200900 AAB
TAFCLE
TAF AMD
KCLE 200902Z 2009/2112 35012KT P6SM OVC025
      TEMPO 2009/2012 SCT025 OVC035
     FM201200 35006KT P6SM SCT250
     FM202200 35008KT P6SM OVC100
     FM210500 VRB03KT P6SM OVC070=



000
FTUS41 KCLE 200700 AAA
TAFYNG
TAF AMD
KYNG 200735Z 2008/2106 32012KT P6SM OVC025
      TEMPO 2009/2013 SCT025 OVC035
     FM201300 32008KT P6SM BKN250
     FM202300 35007KT P6SM OVC100
     FM210100 VRB02KT P6SM OVC100=



000
FTUS41 KCLE 200700 AAA
TAFYNG
TAF AMD
KYNG 200735Z 2008/2106 32012KT P6SM OVC025
      TEMPO 2009/2013 SCT025 OVC035
     FM201300 32008KT P6SM BKN250
     FM202300 35007KT P6SM OVC100
     FM210100 VRB02KT P6SM OVC100=



000
FTUS41 KCLE 200700 AAA
TAFCLE
TAF AMD
KCLE 200734Z 2008/2112 35012KT P6SM OVC025
      TEMPO 2008/2012 SCT025 OVC035
     FM201200 35006KT P6SM SCT250
     FM202200 35008KT P6SM OVC100
     FM210500 VRB03KT P6SM OVC070=



000
FTUS41 KCLE 200700 AAA
TAFCLE
TAF AMD
KCLE 200734Z 2008/2112 35012KT P6SM OVC025
      TEMPO 2008/2012 SCT025 OVC035
     FM201200 35006KT P6SM SCT250
     FM202200 35008KT P6SM OVC100
     FM210500 VRB03KT P6SM OVC070=



    US Dept of Commerce
    National Oceanic and Atmospheric Administration
    National Weather Service
    1325 East West Highway
    Silver Spring, MD 20910
    Page Author: NWS Internet Services Team
Disclaimer
Information Quality
Credits
Glossary
Privacy Policy
Freedom of Information Act (FOIA)
About Us
Career Opportunities